Time;durP1;ratioP1;P1;durP2;ratioP2;P2;SDS_P1;SDS_P2;PMS_P1;PMS_P2;Temp;Humidity;BMP_temperature;BMP_pressure;BME280_temperature;BME280_humidity;BME280_pressure;Samples;Min_cycle;Max_cycle;Signal;HPM_P1;HPM_P2
2021/09/18 00:00:56;;;;;;;33.07;23.00;;;;;;;12.00;99.98;101470.72;2089978;28;20051;-62
2021/09/18 00:01:57;;;;;;;28.00;21.63;;;;;;;12.00;100.00;101468.13;2090038;28;20449;-63
2021/09/18 00:02:57;;;;;;;28.17;21.87;;;;;;;12.00;100.00;101462.88;2090795;28;20025;-62
2021/09/18 00:03:57;;;;;;;30.17;22.60;;;;;;;11.99;100.00;101461.19;2091585;28;20025;-63
2021/09/18 00:04:58;;;;;;;30.23;21.47;;;;;;;11.97;100.00;101466.47;2091691;28;20033;-63
2021/09/18 00:05:58;;;;;;;31.10;22.13;;;;;;;11.99;100.00;101461.19;2082812;28;20022;-63
2021/09/18 00:06:58;;;;;;;35.10;23.57;;;;;;;11.96;100.00;101462.16;2082811;28;20064;-64
2021/09/18 00:07:58;;;;;;;31.27;21.27;;;;;;;11.96;100.00;101456.06;2091599;28;20025;-62
2021/09/18 00:08:59;;;;;;;32.03;20.77;;;;;;;11.96;100.00;101463.91;2082740;28;20042;-62
2021/09/18 00:09:59;;;;;;;29.23;22.37;;;;;;;11.95;100.00;101459.59;2082819;28;20029;-62
2021/09/18 00:10:59;;;;;;;26.10;19.80;;;;;;;11.95;100.00;101460.44;2091469;28;20056;-62
2021/09/18 00:12:00;;;;;;;26.20;19.07;;;;;;;11.96;100.00;101461.31;2091426;28;20029;-62
2021/09/18 00:13:00;;;;;;;28.35;21.35;;;;;;;11.97;100.00;101463.00;2091546;28;20029;-62
2021/09/18 00:14:00;;;;;;;33.07;22.47;;;;;;;11.95;100.00;101465.66;2082650;28;20068;-62
2021/09/18 00:15:01;;;;;;;32.97;22.23;;;;;;;11.95;100.00;101464.84;2082759;28;20029;-62
2021/09/18 00:16:02;;;;;;;27.42;20.98;;;;;;;11.93;99.97;101467.50;2091625;28;20079;-63
2021/09/18 00:17:04;;;;;;;33.13;21.63;;;;;;;11.91;100.00;101463.25;2091572;28;20087;-62
2021/09/18 00:18:04;;;;;;;32.03;22.95;;;;;;;11.92;100.00;101465.81;2091528;28;20029;-63
2021/09/18 00:19:04;;;;;;;31.43;22.60;;;;;;;11.92;100.00;101467.56;2091610;28;20029;-62
2021/09/18 00:20:05;;;;;;;29.50;22.27;;;;;;;11.91;100.00;101463.25;2091502;28;20035;-63
2021/09/18 00:21:06;;;;;;;30.38;21.77;;;;;;;11.87;100.00;101464.28;2091331;28;20080;-64
2021/09/18 00:22:06;;;;;;;27.57;21.67;;;;;;;11.84;99.99;101468.69;2082645;28;20029;-62
2021/09/18 00:23:06;;;;;;;34.47;22.77;;;;;;;11.83;100.00;101467.00;2082678;28;20044;-61
2021/09/18 00:24:07;;;;;;;30.70;19.90;;;;;;;11.84;100.00;101468.69;2091309;28;20029;-62
2021/09/18 00:25:07;;;;;;;29.17;21.25;;;;;;;11.84;100.00;101458.25;2091435;28;20035;-63
2021/09/18 00:26:07;;;;;;;27.13;20.25;;;;;;;11.84;100.00;101463.47;2091398;28;20076;-62
2021/09/18 00:27:08;;;;;;;27.23;21.27;;;;;;;11.83;99.86;101467.00;2091447;28;20028;-62
2021/09/18 00:28:08;;;;;;;29.37;21.73;;;;;;;11.80;100.00;101461.88;2082506;28;20067;-60
2021/09/18 00:29:08;;;;;;;27.77;21.80;;;;;;;11.82;99.93;101470.53;2082600;28;20025;-62
2021/09/18 00:30:09;;;;;;;31.50;21.47;;;;;;;11.81;99.87;101463.59;2091392;28;20029;-63
2021/09/18 00:31:09;;;;;;;32.47;21.93;;;;;;;11.80;99.92;101467.13;2091394;28;20033;-64
2021/09/18 00:32:09;;;;;;;28.13;20.63;;;;;;;11.79;100.00;101465.41;2082445;28;20295;-63
2021/09/18 00:33:10;;;;;;;29.73;21.20;;;;;;;11.77;100.00;101471.63;2082555;28;20025;-63
2021/09/18 00:34:10;;;;;;;27.33;21.17;;;;;;;11.76;99.83;101467.28;2091297;28;20052;-62
2021/09/18 00:35:11;;;;;;;30.60;21.13;;;;;;;11.74;100.00;101462.13;2091387;28;20100;-62
2021/09/18 00:36:11;;;;;;;28.77;20.67;;;;;;;11.74;100.00;101462.13;2082396;28;20072;-63
2021/09/18 00:37:11;;;;;;;29.20;21.67;;;;;;;11.75;100.00;101460.34;2082304;28;20037;-63
2021/09/18 00:38:13;;;;;;;34.13;22.67;;;;;;;11.75;100.00;101462.97;2082545;28;20028;-63
2021/09/18 00:39:13;;;;;;;;;;;;;;;11.72;100.00;101477.00;2091308;28;20029;-63
2021/09/18 00:40:13;;;;;;;34.45;21.95;;;;;;;11.72;99.96;101461.31;2090761;28;19979;-63
2021/09/18 00:41:14;;;;;;;27.90;20.53;;;;;;;11.72;100.00;101463.94;2091304;28;20174;-63
2021/09/18 00:42:15;;;;;;;29.75;20.48;;;;;;;11.71;100.00;101459.63;2091429;28;20543;-63
2021/09/18 00:43:15;;;;;;;28.23;20.63;;;;;;;11.73;100.00;101463.03;2082482;28;20025;-63
2021/09/18 00:44:17;;;;;;;30.10;21.57;;;;;;;11.72;100.00;101461.31;2082597;28;20092;-63
2021/09/18 00:45:18;;;;;;;32.40;21.98;;;;;;;11.70;100.00;101457.91;2091401;28;20020;-63
2021/09/18 00:46:18;;;;;;;34.67;22.03;;;;;;;11.71;100.00;101462.25;2082561;28;20031;-63
2021/09/18 00:47:19;;;;;;;31.20;22.65;;;;;;;11.70;100.00;101460.50;2082615;28;20060;-63
2021/09/18 00:48:19;;;;;;;30.33;20.63;;;;;;;11.68;100.00;101462.34;2091393;28;20052;-61
2021/09/18 00:49:20;;;;;;;33.07;22.67;;;;;;;11.67;100.00;101463.25;2091310;28;20032;-62
2021/09/18 00:50:20;;;;;;;30.15;20.52;;;;;;;11.64;100.00;101464.25;2091346;28;20025;-63
2021/09/18 00:51:20;;;;;;;33.10;21.40;;;;;;;11.62;100.00;101466.03;2091318;28;20109;-63
2021/09/18 00:52:21;;;;;;;28.90;22.10;;;;;;;11.60;99.63;101465.22;2091266;28;20063;-63
2021/09/18 00:53:22;;;;;;;30.93;21.30;;;;;;;11.61;100.00;101463.47;2091392;28;20497;-62
2021/09/18 00:54:23;;;;;;;29.10;20.98;;;;;;;11.61;99.75;101461.72;2091395;28;20028;-63
2021/09/18 00:55:25;;;;;;;27.42;21.10;;;;;;;11.62;99.79;101462.56;2091305;28;20028;-62
2021/09/18 00:56:25;;;;;;;;;;;;;;;11.62;99.99;101457.34;2082882;28;20150;-63
2021/09/18 00:57:26;;;;;;;26.17;19.80;;;;;;;11.62;100.00;101459.94;2082461;28;19944;-62
2021/09/18 00:58:26;;;;;;;25.48;19.70;;;;;;;11.61;100.00;101460.88;2082512;28;20065;-62
2021/09/18 00:59:26;;;;;;;27.00;19.30;;;;;;;11.61;99.48;101469.56;2091238;28;20035;-62
2021/09/18 01:00:27;;;;;;;29.90;21.70;;;;;;;11.59;99.90;101459.16;2082329;28;20037;-63
2021/09/18 01:01:27;;;;;;;30.30;20.25;;;;;;;11.59;100.00;101460.91;2082340;28;20013;-62
2021/09/18 01:02:27;;;;;;;25.80;20.87;;;;;;;11.58;100.00;101462.69;2091129;28;20397;-62
2021/09/18 01:03:28;;;;;;;28.10;20.83;;;;;;;11.54;100.00;101455.88;2091321;28;20120;-62
2021/09/18 01:04:28;;;;;;;34.00;21.75;;;;;;;11.56;99.91;101467.13;2082404;28;20084;-63
2021/09/18 01:05:30;;;;;;;29.53;21.47;;;;;;;11.56;99.84;101461.03;2082438;28;20018;-62
2021/09/18 01:06:31;;;;;;;25.35;20.30;;;;;;;11.56;100.00;101461.91;2091214;28;20032;-62
2021/09/18 01:07:31;;;;;;;29.15;21.42;;;;;;;11.56;100.00;101456.66;2091187;28;20075;-62
2021/09/18 01:08:31;;;;;;;28.87;22.23;;;;;;;11.55;100.00;101452.34;2091183;28;20398;-62
2021/09/18 01:09:32;;;;;;;31.13;21.42;;;;;;;11.54;100.00;101452.41;2091211;28;20417;-62
2021/09/18 01:10:32;;;;;;;30.77;21.50;;;;;;;11.52;100.00;101456.81;2091176;28;20032;-62
2021/09/18 01:11:33;;;;;;;27.83;19.63;;;;;;;11.50;100.00;101459.50;2091229;28;20017;-62
2021/09/18 01:12:33;;;;;;;26.10;19.77;;;;;;;11.48;100.00;101456.09;2082335;28;20387;-62
2021/09/18 01:13:34;;;;;;;25.10;19.57;;;;;;;11.47;100.00;101454.41;2082379;28;20074;-62
2021/09/18 01:14:35;;;;;;;;;;;;;;;11.46;100.00;101455.28;2090837;28;20048;-62
2021/09/18 01:15:37;;;;;;;27.05;18.95;;;;;;;11.45;100.00;101458.81;2091185;28;19915;-62
2021/09/18 01:16:38;;;;;;;30.20;19.85;;;;;;;11.44;100.00;101462.34;2091098;28;20382;-63
2021/09/18 01:17:38;;;;;;;27.10;18.63;;;;;;;11.43;100.00;101458.03;2091008;28;20104;-63
2021/09/18 01:18:38;;;;;;;28.27;19.73;;;;;;;11.43;100.00;101465.88;2091012;28;20105;-62
2021/09/18 01:19:39;;;;;;;28.00;20.40;;;;;;;11.40;100.00;101460.75;2091055;28;20017;-63
2021/09/18 01:20:43;;;;;;;28.27;19.98;;;;;;;11.40;100.00;101463.38;2090906;28;20040;-63
2021/09/18 01:21:48;;;;;;;29.95;22.27;;;;;;;11.39;100.00;101466.91;2091032;28;20033;-63
2021/09/18 01:22:48;;;;;;;30.38;22.17;;;;;;;11.40;100.00;101468.59;2091085;28;20033;-63
2021/09/18 01:23:49;;;;;;;29.87;21.23;;;;;;;11.40;100.00;101469.41;2082039;28;20032;-63
2021/09/18 01:24:49;;;;;;;25.47;20.07;;;;;;;11.38;100.00;101460.81;2082111;28;20746;-62
2021/09/18 01:25:49;;;;;;;43.60;22.87;;;;;;;11.37;100.00;101463.47;2090956;28;20056;-63
2021/09/18 01:26:50;;;;;;;34.63;21.65;;;;;;;11.35;100.00;101460.06;2090931;28;20037;-63
2021/09/18 01:27:50;;;;;;;25.90;19.77;;;;;;;11.31;100.00;101470.63;2090934;28;20017;-63
2021/09/18 01:28:50;;;;;;;26.60;20.03;;;;;;;11.29;100.00;101466.38;2082184;28;20115;-64
2021/09/18 01:29:50;;;;;;;27.43;19.80;;;;;;;11.27;100.00;101469.03;2082230;28;20025;-63
2021/09/18 01:30:52;;;;;;;25.73;20.63;;;;;;;11.26;100.00;101477.75;2090887;28;20021;-62
2021/09/18 01:31:52;;;;;;;25.35;19.05;;;;;;;11.25;100.00;101476.06;2090984;28;20466;-63
2021/09/18 01:32:53;;;;;;;28.07;19.83;;;;;;;11.23;100.00;101474.41;2090928;28;20033;-63
2021/09/18 01:33:54;;;;;;;29.33;19.58;;;;;;;11.21;100.00;101469.25;2090910;28;20386;-63
2021/09/18 01:34:54;;;;;;;27.83;21.33;;;;;;;11.21;99.99;101471.84;2090902;28;20036;-63
2021/09/18 01:35:54;;;;;;;32.83;22.93;;;;;;;11.23;99.87;101470.06;2090874;28;20035;-63
2021/09/18 01:36:55;;;;;;;27.20;19.83;;;;;;;11.23;100.00;101477.88;2090813;28;20041;-62
2021/09/18 01:37:55;;;;;;;27.17;20.00;;;;;;;11.22;100.00;101467.50;2090817;28;20079;-62
2021/09/18 01:38:55;;;;;;;25.63;19.63;;;;;;;11.22;100.00;101476.16;2082040;28;20029;-63
2021/09/18 01:39:55;;;;;;;28.77;20.90;;;;;;;11.22;100.00;101476.16;2082073;28;20032;-62
2021/09/18 01:40:56;;;;;;;28.87;19.53;;;;;;;11.23;100.00;101469.19;2090724;28;20029;-63
2021/09/18 01:41:56;;;;;;;27.07;19.37;;;;;;;11.23;100.00;101477.88;2090941;28;20039;-63
2021/09/18 01:42:57;;;;;;;26.97;20.07;;;;;;;11.20;100.00;101473.59;2090824;28;20029;-63
2021/09/18 01:44:03;;;;;;;;;;;;;;;11.21;100.00;101471.84;2091257;28;20032;-63
2021/09/18 01:45:03;;;;;;;26.00;17.10;;;;;;;11.22;100.00;101476.16;2090941;28;19915;-63
2021/09/18 01:46:03;;;;;;;24.17;18.38;;;;;;;11.24;100.00;101481.34;2090921;28;20052;-62
2021/09/18 01:47:04;;;;;;;26.57;20.13;;;;;;;11.21;100.00;101474.47;2081854;28;20473;-63
2021/09/18 01:48:07;;;;;;;29.40;20.77;;;;;;;11.23;100.00;101471.78;2081936;28;20033;-63
2021/09/18 01:49:14;;;;;;;31.00;20.48;;;;;;;11.20;100.00;101465.75;2090760;28;20479;-63
2021/09/18 01:50:40;;;;;;;29.48;20.50;;;;;;;11.24;100.00;101474.38;2090813;28;20029;-63
2021/09/18 01:51:54;;;;;;;25.55;18.30;;;;;;;11.29;100.00;101476.81;2081877;28;20530;-63
2021/09/18 01:53:00;;;;;;;29.95;20.42;;;;;;;11.32;100.00;101472.31;2075536;28;20026;-63
2021/09/18 01:54:00;;;;;;;27.92;18.27;;;;;;;11.35;100.00;101470.53;2082669;28;20029;-63
2021/09/18 01:55:00;;;;;;;30.10;21.97;;;;;;;11.36;100.00;101469.59;2090838;28;20021;-63
2021/09/18 01:56:01;;;;;;;32.13;20.37;;;;;;;11.36;100.00;101467.84;2090801;28;20032;-63
2021/09/18 01:57:06;;;;;;;29.47;20.07;;;;;;;11.36;100.00;101464.38;2090746;28;20482;-63
2021/09/18 01:58:07;;;;;;;31.77;22.00;;;;;;;11.32;100.00;101464.50;2090786;28;20540;-63
2021/09/18 01:59:08;;;;;;;29.35;20.25;;;;;;;11.30;100.00;101461.06;2090704;28;20059;-63
2021/09/18 02:00:10;;;;;;;32.40;21.27;;;;;;;11.27;100.00;101463.81;2090769;28;20056;-63
2021/09/18 02:01:10;;;;;;;29.90;21.08;;;;;;;11.23;100.00;101470.06;2090785;28;20107;-63
2021/09/18 02:02:10;;;;;;;30.00;21.57;;;;;;;11.23;100.00;101464.81;2090659;28;20070;-63
2021/09/18 02:03:11;;;;;;;29.57;20.47;;;;;;;11.20;100.00;101476.22;2090714;28;20091;-63
2021/09/18 02:04:11;;;;;;;28.63;19.92;;;;;;;11.16;100.00;101471.16;2090631;28;20485;-63
2021/09/18 02:05:15;;;;;;;30.07;20.83;;;;;;;11.14;100.00;101467.75;2090708;28;20024;-63
2021/09/18 02:06:16;;;;;;;28.85;20.10;;;;;;;11.14;100.00;101467.75;2090682;28;20468;-62
2021/09/18 02:07:16;;;;;;;28.67;21.05;;;;;;;11.12;100.00;101469.56;2090776;28;20029;-63
2021/09/18 02:08:17;;;;;;;35.03;20.27;;;;;;;11.08;100.00;101469.66;2090738;28;20021;-63
2021/09/18 02:09:17;;;;;;;29.07;21.17;;;;;;;11.07;100.00;101467.97;2090729;28;20021;-62
2021/09/18 02:10:21;;;;;;;27.17;19.73;;;;;;;11.06;100.00;101466.25;2081884;28;20021;-62
2021/09/18 02:11:21;;;;;;;27.65;19.95;;;;;;;11.07;100.00;101467.97;2082339;28;20537;-62
2021/09/18 02:12:21;;;;;;;31.10;21.10;;;;;;;11.08;100.00;101469.66;2090702;28;20060;-62
2021/09/18 02:13:22;;;;;;;29.00;20.87;;;;;;;11.07;100.00;101473.19;2090576;28;20070;-63
2021/09/18 02:14:23;;;;;;;30.10;21.65;;;;;;;11.08;100.00;101468.81;2090628;28;20053;-63
2021/09/18 02:15:24;;;;;;;31.27;19.87;;;;;;;11.07;100.00;101473.19;2090659;28;20420;-63
2021/09/18 02:16:24;;;;;;;27.30;20.40;;;;;;;11.08;100.00;101467.06;2090661;28;20028;-63
2021/09/18 02:17:25;;;;;;;35.37;21.67;;;;;;;11.10;100.00;101471.38;2090608;28;20029;-62
2021/09/18 02:18:25;;;;;;;33.30;22.20;;;;;;;11.11;100.00;101466.09;2081704;28;20033;-64
2021/09/18 02:19:25;;;;;;;24.23;19.30;;;;;;;11.07;100.00;101462.75;2081651;28;20083;-62
2021/09/18 02:20:28;;;;;;;28.17;20.03;;;;;;;11.09;100.00;101454.88;2090473;28;20056;-62
2021/09/18 02:21:28;;;;;;;38.70;24.95;;;;;;;11.08;100.00;101453.13;2090343;28;20375;-62
2021/09/18 02:22:29;;;;;;;31.97;21.97;;;;;;;11.07;100.00;101457.53;2090499;28;20028;-62
2021/09/18 02:23:29;;;;;;;35.23;24.00;;;;;;;11.07;100.00;101452.31;2090621;28;20029;-62
2021/09/18 02:24:29;;;;;;;32.77;24.00;;;;;;;11.06;100.00;101458.41;2081667;28;20113;-62
2021/09/18 02:25:30;;;;;;;33.87;23.80;;;;;;;11.04;100.00;101455.00;2081597;28;20508;-62
2021/09/18 02:26:30;;;;;;;29.37;20.63;;;;;;;11.02;100.00;101459.41;2089824;28;20478;-62
2021/09/18 02:27:31;;;;;;;33.80;21.80;;;;;;;11.00;100.00;101458.63;2090590;28;20036;-61
2021/09/18 02:28:31;;;;;;;28.73;18.00;;;;;;;11.01;100.00;101460.34;2090407;28;20032;-62
2021/09/18 02:29:31;;;;;;;31.10;19.17;;;;;;;11.01;100.00;101449.88;2090315;28;20020;-62
2021/09/18 02:30:33;;;;;;;25.60;18.20;;;;;;;11.04;100.00;101464.59;2090379;28;20095;-62
2021/09/18 02:31:34;;;;;;;24.92;19.35;;;;;;;11.03;100.00;101461.16;2090368;28;20057;-62
2021/09/18 02:32:35;;;;;;;28.47;16.43;;;;;;;11.03;100.00;101449.84;2090324;28;20532;-63
2021/09/18 02:33:35;;;;;;;34.42;19.27;;;;;;;11.04;100.00;101448.91;2090219;28;20021;-63
2021/09/18 02:34:36;;;;;;;30.90;21.25;;;;;;;11.02;100.00;101443.75;2090306;28;20100;-62
2021/09/18 02:35:37;;;;;;;31.33;20.80;;;;;;;11.00;100.00;101456.03;2090293;28;20130;-62
2021/09/18 02:36:37;;;;;;;35.53;23.52;;;;;;;10.98;100.00;101450.00;2090351;28;20029;-62
2021/09/18 02:37:39;;;;;;;28.77;22.97;;;;;;;10.98;100.00;101455.22;2081460;28;20017;-62
2021/09/18 02:38:39;;;;;;;33.15;24.15;;;;;;;10.99;100.00;101448.25;2081505;28;20128;-63
2021/09/18 02:39:39;;;;;;;39.83;25.67;;;;;;;10.95;100.00;101447.50;2090354;28;20021;-63
2021/09/18 02:40:40;;;;;;;32.70;24.23;;;;;;;10.96;100.00;101446.59;2090233;28;20028;-62
2021/09/18 02:41:41;;;;;;;34.35;23.55;;;;;;;10.95;100.00;101452.72;2081313;28;20025;-63
2021/09/18 02:42:43;;;;;;;35.37;23.43;;;;;;;10.94;100.00;101451.00;2081434;28;20022;-63
2021/09/18 02:43:43;;;;;;;35.35;23.52;;;;;;;10.93;100.00;101444.06;2090249;28;20021;-63
2021/09/18 02:44:44;;;;;;;31.57;23.07;;;;;;;10.92;100.00;101442.38;2090224;28;20017;-63
2021/09/18 02:45:44;;;;;;;36.30;23.93;;;;;;;10.92;100.00;101445.00;2090294;28;20048;-63
2021/09/18 02:46:44;;;;;;;37.23;23.23;;;;;;;10.92;100.00;101442.38;2090264;28;20138;-63
2021/09/18 02:47:45;;;;;;;32.20;23.13;;;;;;;10.92;100.00;101442.38;2090186;28;20027;-63
2021/09/18 02:48:46;;;;;;;33.55;24.90;;;;;;;10.94;100.00;101445.78;2090203;28;20112;-63
2021/09/18 02:49:46;;;;;;;35.10;25.60;;;;;;;10.92;100.00;101447.59;2090235;28;20430;-63
2021/09/18 02:50:47;;;;;;;33.47;24.50;;;;;;;10.93;100.00;101438.84;2090278;28;20060;-63
2021/09/18 02:51:48;;;;;;;38.47;28.15;;;;;;;10.95;100.00;101434.44;2090267;28;20040;-63
2021/09/18 02:52:48;;;;;;;39.33;26.73;;;;;;;10.93;100.00;101433.63;2090318;28;20454;-63
2021/09/18 02:53:48;;;;;;;35.00;26.57;;;;;;;10.92;100.00;101437.16;2090294;28;20060;-63
2021/09/18 02:54:48;;;;;;;37.83;26.07;;;;;;;10.89;100.00;101437.25;2090378;28;20047;-63
2021/09/18 02:55:49;;;;;;;37.97;26.67;;;;;;;10.89;100.00;101437.25;2090319;28;20036;-62
2021/09/18 02:56:49;;;;;;;39.03;27.30;;;;;;;10.87;100.00;101434.69;2090274;28;20025;-62
2021/09/18 02:57:49;;;;;;;41.40;28.13;;;;;;;10.85;100.00;101433.03;2090288;28;20037;-62
2021/09/18 02:58:49;;;;;;;39.93;28.13;;;;;;;10.84;100.00;101433.97;2090315;28;20056;-63
2021/09/18 02:59:50;;;;;;;43.43;28.87;;;;;;;10.84;100.00;101436.56;2081438;28;20561;-63
2021/09/18 03:00:50;;;;;;;43.93;28.13;;;;;;;10.84;100.00;101428.75;2081512;28;20061;-63
2021/09/18 03:01:50;;;;;;;37.77;26.63;;;;;;;10.85;100.00;101430.44;2090273;28;20462;-63
2021/09/18 03:02:51;;;;;;;36.73;26.57;;;;;;;10.85;100.00;101433.03;2090162;28;20398;-63
2021/09/18 03:03:51;;;;;;;42.03;27.47;;;;;;;10.85;100.00;101420.00;2090181;28;20486;-63
2021/09/18 03:04:51;;;;;;;39.60;27.17;;;;;;;10.86;100.00;101434.75;2090296;28;20081;-63
2021/09/18 03:05:51;;;;;;;39.70;27.13;;;;;;;10.86;100.00;101426.91;2090194;28;20040;-63
2021/09/18 03:06:52;;;;;;;37.23;25.07;;;;;;;10.84;100.00;101432.19;2090198;28;20434;-63
2021/09/18 03:07:52;;;;;;;37.13;25.63;;;;;;;10.83;100.00;101433.09;2090156;28;20048;-63
2021/09/18 03:08:52;;;;;;;36.70;25.63;;;;;;;10.82;100.00;101416.56;2090155;28;20074;-63
2021/09/18 03:09:52;;;;;;;35.17;25.80;;;;;;;10.81;100.00;101427.91;2090235;28;20021;-63
2021/09/18 03:10:53;;;;;;;35.87;25.23;;;;;;;10.79;100.00;101423.66;2090156;28;20040;-63
2021/09/18 03:11:53;;;;;;;31.13;24.43;;;;;;;10.80;100.00;101428.84;2090255;28;20117;-63
2021/09/18 03:12:53;;;;;;;34.57;25.03;;;;;;;10.79;100.00;101427.13;2090220;28;20036;-63
2021/09/18 03:13:54;;;;;;;31.27;20.13;;;;;;;10.79;100.00;101427.13;2090066;28;20341;-63
2021/09/18 03:14:54;;;;;;;37.20;24.73;;;;;;;10.82;100.00;101429.63;2090155;28;20390;-62
2021/09/18 03:15:54;;;;;;;35.50;25.17;;;;;;;10.81;100.00;101430.53;2081240;28;20029;-63
2021/09/18 03:16:55;;;;;;;35.92;27.10;;;;;;;10.79;100.00;101427.13;2081369;28;20506;-62
2021/09/18 03:17:57;;;;;;;40.17;27.20;;;;;;;10.80;100.00;101430.59;2090201;28;20029;-63
2021/09/18 03:18:57;;;;;;;37.85;25.88;;;;;;;10.80;100.00;101428.84;2090106;28;20562;-63
2021/09/18 03:19:57;;;;;;;32.97;23.83;;;;;;;10.79;100.00;101426.28;2090172;28;20037;-62
2021/09/18 03:20:58;;;;;;;38.13;25.20;;;;;;;10.79;100.00;101427.13;2089959;28;20076;-63
2021/09/18 03:21:58;;;;;;;30.83;22.03;;;;;;;10.80;100.00;101413.16;2090241;28;20108;-63
2021/09/18 03:22:58;;;;;;;31.53;22.80;;;;;;;10.81;100.00;101420.09;2090153;28;20822;-63
2021/09/18 03:23:59;;;;;;;35.43;22.63;;;;;;;10.82;100.00;101426.19;2090023;28;20052;-62
2021/09/18 03:24:59;;;;;;;35.73;24.00;;;;;;;10.81;100.00;101422.69;2090163;28;20122;-63
2021/09/18 03:25:59;;;;;;;33.30;25.13;;;;;;;10.79;100.00;101424.53;2090116;28;20029;-63
2021/09/18 03:27:00;;;;;;;34.83;25.10;;;;;;;10.75;100.00;101425.53;2089975;28;20033;-62
2021/09/18 03:28:01;;;;;;;33.90;24.17;;;;;;;10.74;100.00;101420.38;2090134;28;20049;-63
2021/09/18 03:29:02;;;;;;;31.77;24.38;;;;;;;10.70;100.00;101422.22;2090173;28;20020;-62
2021/09/18 03:30:04;;;;;;;35.78;24.92;;;;;;;10.69;100.00;101415.28;2090094;28;20044;-63
2021/09/18 03:31:05;;;;;;;35.20;26.08;;;;;;;10.67;100.00;101417.09;2090066;28;20068;-63
2021/09/18 03:32:05;;;;;;;36.00;25.13;;;;;;;10.66;100.00;101425.84;2090098;28;20032;-63
2021/09/18 03:33:06;;;;;;;36.47;25.33;;;;;;;10.66;100.00;101420.59;2090118;28;20029;-62
2021/09/18 03:34:06;;;;;;;36.93;25.37;;;;;;;10.64;100.00;101412.81;2090029;28;20064;-62
2021/09/18 03:35:07;;;;;;;33.40;23.07;;;;;;;10.64;100.00;101418.03;2090168;28;20055;-63
2021/09/18 03:36:07;;;;;;;35.47;24.42;;;;;;;10.63;100.00;101418.97;2090094;28;20431;-63
2021/09/18 03:37:07;;;;;;;35.10;23.87;;;;;;;10.63;100.00;101418.09;2089992;28;20025;-62
2021/09/18 03:38:09;;;;;;;35.07;25.00;;;;;;;10.63;100.00;101418.09;2089680;28;20025;-63
2021/09/18 03:39:09;;;;;;;32.92;24.60;;;;;;;10.64;100.00;101419.81;2090057;28;20024;-62
2021/09/18 03:40:11;;;;;;;37.83;25.17;;;;;;;10.64;100.00;101417.22;2090155;28;20098;-63
2021/09/18 03:41:12;;;;;;;35.50;25.10;;;;;;;10.65;100.00;101413.69;2090072;28;20021;-63
2021/09/18 03:42:12;;;;;;;35.13;23.87;;;;;;;10.67;100.00;101417.09;2090075;28;20035;-62
2021/09/18 03:43:12;;;;;;;34.97;26.53;;;;;;;10.67;100.00;101420.56;2081120;28;20067;-63
2021/09/18 03:44:12;;;;;;;35.13;26.77;;;;;;;10.67;100.00;101419.69;2081225;28;20036;-62
2021/09/18 03:45:13;;;;;;;43.77;28.10;;;;;;;10.68;100.00;101424.03;2090039;28;20032;-62
2021/09/18 03:46:13;;;;;;;39.75;26.60;;;;;;;10.69;100.00;101425.72;2090015;28;20025;-62
2021/09/18 03:47:14;;;;;;;36.27;26.83;;;;;;;10.71;100.00;101417.84;2090031;28;20055;-62
2021/09/18 03:48:14;;;;;;;39.60;27.17;;;;;;;10.70;100.00;101427.44;2081171;28;20533;-62
2021/09/18 03:49:14;;;;;;;38.23;26.93;;;;;;;10.69;100.00;101426.59;2081260;28;20116;-62
2021/09/18 03:50:15;;;;;;;35.17;26.03;;;;;;;10.67;100.00;101422.31;2089997;28;20060;-62
2021/09/18 03:51:15;;;;;;;38.83;27.33;;;;;;;10.64;100.00;101423.25;2090018;28;20544;-64
2021/09/18 03:52:15;;;;;;;39.30;27.53;;;;;;;10.62;100.00;101419.88;2081102;28;20029;-63
2021/09/18 03:53:15;;;;;;;38.07;27.17;;;;;;;10.58;100.00;101422.63;2081204;28;20025;-63
2021/09/18 03:54:16;;;;;;;36.53;25.40;;;;;;;10.55;100.00;101413.97;2089462;28;20021;-63
2021/09/18 03:55:16;;;;;;;33.23;24.30;;;;;;;10.53;100.00;101415.81;2090052;28;20025;-63
2021/09/18 03:56:16;;;;;;;44.47;28.80;;;;;;;10.54;100.00;101417.50;2090085;28;20056;-63
2021/09/18 03:57:17;;;;;;;42.30;28.83;;;;;;;10.55;100.00;101419.19;2081160;28;20029;-63
2021/09/18 03:58:17;;;;;;;39.63;28.57;;;;;;;10.54;100.00;101417.50;2081143;28;20036;-63
2021/09/18 03:59:17;;;;;;;38.23;26.47;;;;;;;10.54;100.00;101414.88;2089345;28;20286;-62
2021/09/18 04:00:17;;;;;;;39.73;28.13;;;;;;;10.55;100.00;101419.19;2081370;28;20025;-63
2021/09/18 04:01:18;;;;;;;37.93;27.13;;;;;;;10.56;100.00;101413.09;2081091;28;20585;-63
2021/09/18 04:02:18;;;;;;;38.03;27.03;;;;;;;10.56;100.00;101412.22;2081232;28;20033;-63
2021/09/18 04:03:19;;;;;;;43.40;28.77;;;;;;;10.56;100.00;101415.72;2089962;28;20689;-63
2021/09/18 04:04:19;;;;;;;40.97;28.23;;;;;;;10.55;100.00;101413.97;2089941;28;20390;-63
2021/09/18 04:05:19;;;;;;;46.13;29.77;;;;;;;10.56;100.00;101415.72;2090124;28;20064;-62
2021/09/18 04:06:20;;;;;;;38.50;29.40;;;;;;;10.58;100.00;101418.28;2089967;28;20064;-62
2021/09/18 04:07:20;;;;;;;35.47;27.60;;;;;;;10.59;100.00;101419.09;2089948;28;20756;-63
2021/09/18 04:08:20;;;;;;;38.17;27.13;;;;;;;10.58;100.00;101418.28;2090017;28;20133;-63
2021/09/18 04:09:20;;;;;;;40.83;27.30;;;;;;;10.54;100.00;101414.88;2081106;28;20075;-63
2021/09/18 04:10:21;;;;;;;37.90;26.17;;;;;;;10.53;100.00;101415.81;2081177;28;20493;-64
2021/09/18 04:11:21;;;;;;;36.67;25.20;;;;;;;10.52;100.00;101419.31;2089847;28;20398;-64
2021/09/18 04:12:21;;;;;;;37.90;25.93;;;;;;;10.51;100.00;101417.59;2081097;28;20025;-63
2021/09/18 04:13:21;;;;;;;36.80;24.60;;;;;;;10.51;100.00;101422.81;2081055;28;20402;-66
2021/09/18 04:14:22;;;;;;;38.50;25.90;;;;;;;10.49;100.00;101422.03;2089909;28;20017;-64
2021/09/18 04:15:22;;;;;;;38.47;27.43;;;;;;;10.51;100.00;101421.97;2089845;28;20470;-63
2021/09/18 04:16:22;;;;;;;37.77;25.43;;;;;;;10.52;100.00;101424.53;2089906;28;20017;-64
2021/09/18 04:17:22;;;;;;;35.70;25.30;;;;;;;10.52;100.00;101424.53;2089891;28;20512;-64
2021/09/18 04:18:23;;;;;;;35.80;25.33;;;;;;;10.52;100.00;101424.53;2081078;28;20522;-64
2021/09/18 04:19:23;;;;;;;37.90;26.13;;;;;;;10.52;100.00;101423.69;2081165;28;20029;-64
2021/09/18 04:20:25;;;;;;;38.80;26.97;;;;;;;10.51;100.00;101425.41;2089864;28;20020;-63
2021/09/18 04:21:26;;;;;;;38.95;26.05;;;;;;;10.51;100.00;101430.66;2089710;28;20049;-64
2021/09/18 04:22:26;;;;;;;38.33;27.53;;;;;;;10.51;100.00;101428.03;2089899;28;20033;-63
2021/09/18 04:23:26;;;;;;;37.40;25.20;;;;;;;10.51;100.00;101433.25;2089850;28;20029;-64
2021/09/18 04:24:27;;;;;;;39.00;26.00;;;;;;;10.50;100.00;101431.56;2089872;28;20291;-63
2021/09/18 04:25:27;;;;;;;40.03;27.20;;;;;;;10.51;100.00;101435.03;2089898;28;20029;-63
2021/09/18 04:26:27;;;;;;;32.83;24.50;;;;;;;10.50;100.00;101435.94;2081021;28;20108;-64
2021/09/18 04:27:28;;;;;;;32.60;25.10;;;;;;;10.49;100.00;101429.84;2080948;28;20021;-62
2021/09/18 04:28:28;;;;;;;32.07;23.37;;;;;;;10.51;100.00;101430.66;2080951;28;20021;-63
2021/09/18 04:29:30;;;;;;;35.53;25.17;;;;;;;10.51;100.00;101430.66;2081093;28;20021;-64
2021/09/18 04:30:31;;;;;;;39.40;24.30;;;;;;;10.51;100.00;101430.66;2089758;28;20048;-63
2021/09/18 04:31:32;;;;;;;36.73;26.97;;;;;;;10.51;100.00;101428.03;2089839;28;20026;-64
2021/09/18 04:32:32;;;;;;;40.03;25.88;;;;;;;10.50;100.00;101428.94;2090034;28;20386;-64
2021/09/18 04:33:32;;;;;;;34.28;24.60;;;;;;;10.49;100.00;101429.00;2080852;28;20026;-63
2021/09/18 04:34:33;;;;;;;35.67;26.13;;;;;;;10.50;100.00;101431.56;2081152;28;20036;-63